createdAt,value
2022-09-13T00:00:17.192Z,15.85
2022-09-13T00:05:18.754Z,15.87
2022-09-13T00:10:20.888Z,15.69
2022-09-13T00:15:22.488Z,15.50
2022-09-13T00:20:24.131Z,15.46
2022-09-13T00:25:25.649Z,15.27
2022-09-13T00:30:27.201Z,15.42
2022-09-13T00:35:28.962Z,15.39
2022-09-13T00:40:30.694Z,15.29
2022-09-13T00:45:32.358Z,15.31
2022-09-13T00:50:48.132Z,15.17
2022-09-13T00:55:51.650Z,15.11
2022-09-13T01:00:53.785Z,15.20
2022-09-13T01:06:02.580Z,15.34
2022-09-13T01:11:06.538Z,15.18
2022-09-13T01:16:08.392Z,15.07
2022-09-13T01:21:28.496Z,15.23
2022-09-13T01:27:04.272Z,14.92
2022-09-13T01:32:29.042Z,14.96
2022-09-13T01:37:39.769Z,14.88
2022-09-13T01:42:54.649Z,14.95
2022-09-13T01:48:05.920Z,14.90
2022-09-13T01:53:18.395Z,14.86
2022-09-13T01:58:28.852Z,14.96
2022-09-13T02:03:48.618Z,15.08
2022-09-13T02:08:54.360Z,15.04
2022-09-13T02:14:05.924Z,15.01
2022-09-13T02:19:13.627Z,15.01
2022-09-13T02:24:21.060Z,14.88
2022-09-13T02:29:24.683Z,14.86
2022-09-13T02:34:34.752Z,14.86
2022-09-13T02:39:38.606Z,14.86
2022-09-13T02:44:45.926Z,14.78
2022-09-13T02:50:25.826Z,14.86
2022-09-13T02:55:36.500Z,14.88
2022-09-13T03:00:39.128Z,14.92
2022-09-13T03:05:40.922Z,14.74
2022-09-13T03:10:55.666Z,14.73
2022-09-13T03:16:03.122Z,14.78
2022-09-13T03:21:16.081Z,14.61
2022-09-13T03:26:41.215Z,14.54
2022-09-13T03:31:50.674Z,14.63
2022-09-13T03:36:56.721Z,14.52
2022-09-13T03:42:01.150Z,14.44
2022-09-13T03:47:04.126Z,14.61
2022-09-13T03:52:06.302Z,14.56
2022-09-13T03:57:09.783Z,14.59
2022-09-13T04:02:12.018Z,14.64
2022-09-13T04:07:18.053Z,14.63
2022-09-13T04:12:19.728Z,14.55
2022-09-13T04:17:21.230Z,14.61
2022-09-13T04:22:22.739Z,14.72
2022-09-13T04:27:25.686Z,14.78
2022-09-13T04:32:27.203Z,14.55
2022-09-13T04:37:28.693Z,14.73
2022-09-13T04:42:30.223Z,14.71
2022-09-13T04:47:31.796Z,14.70
2022-09-13T04:52:33.642Z,14.71
2022-09-13T04:57:35.165Z,14.82
2022-09-13T05:02:36.977Z,14.77
2022-09-13T05:07:39.319Z,14.82
2022-09-13T05:12:40.917Z,14.80
2022-09-13T05:17:42.618Z,14.73
2022-09-13T05:22:44.143Z,14.82
2022-09-13T05:27:46.026Z,15.04
2022-09-13T05:32:47.566Z,15.15
2022-09-13T05:37:49.576Z,15.32
2022-09-13T05:42:53.179Z,15.44
2022-09-13T05:47:54.708Z,15.55
2022-09-13T05:52:56.781Z,15.54
2022-09-13T05:57:58.349Z,15.51
2022-09-13T06:03:00.762Z,15.61
2022-09-13T06:08:02.606Z,15.80
2022-09-13T06:13:04.116Z,15.91
2022-09-13T06:18:06.831Z,16.19
2022-09-13T06:23:08.376Z,16.40
2022-09-13T06:28:10.213Z,16.55
2022-09-13T06:33:11.751Z,16.53
2022-09-13T06:38:13.309Z,16.52
2022-09-13T06:43:15.770Z,16.55
2022-09-13T06:48:18.367Z,16.69
2022-09-13T06:53:19.913Z,16.89
2022-09-13T06:58:21.544Z,16.88
2022-09-13T07:03:23.046Z,16.89
2022-09-13T07:08:24.624Z,17.01
2022-09-13T07:13:26.162Z,17.04
2022-09-13T07:18:27.724Z,17.09
2022-09-13T07:23:30.863Z,17.19
2022-09-13T07:28:44.036Z,17.22
2022-09-13T07:33:45.565Z,17.21
2022-09-13T07:38:48.229Z,17.26
2022-09-13T07:43:49.938Z,17.31
2022-09-13T07:48:56.649Z,17.24
2022-09-13T07:54:00.158Z,17.34
2022-09-13T07:59:04.396Z,17.34
2022-09-13T08:04:08.061Z,17.29
2022-09-13T08:09:10.769Z,17.32
2022-09-13T08:14:15.355Z,17.29
2022-09-13T08:19:18.597Z,17.29
2022-09-13T08:24:21.746Z,17.30
2022-09-13T08:29:25.204Z,17.41
2022-09-13T08:34:27.283Z,17.49
2022-09-13T08:39:30.422Z,17.53
2022-09-13T08:44:38.188Z,17.48
2022-09-13T08:49:44.386Z,17.54
2022-09-13T08:54:45.885Z,17.58
2022-09-13T09:00:04.874Z,17.67
2022-09-13T09:05:19.461Z,17.71
2022-09-13T09:10:33.115Z,17.74
2022-09-13T09:15:42.446Z,17.84
2022-09-13T09:20:53.164Z,17.94
2022-09-13T09:25:58.260Z,17.98
2022-09-13T09:31:06.205Z,18.01
2022-09-13T09:36:40.904Z,18.09
2022-09-13T09:41:44.109Z,18.23
2022-09-13T09:46:52.170Z,18.32
2022-09-13T09:51:54.516Z,18.40
2022-09-13T09:56:56.204Z,18.48
2022-09-13T10:01:58.606Z,18.62
2022-09-13T10:07:25.048Z,18.81
2022-09-13T10:12:34.109Z,18.95
2022-09-13T10:17:35.725Z,19.08
2022-09-13T10:22:38.019Z,19.15
2022-09-13T10:27:45.455Z,19.27
2022-09-13T10:32:55.567Z,19.36
2022-09-13T10:37:57.180Z,19.41
2022-09-13T10:43:00.363Z,19.48
2022-09-13T10:48:11.071Z,19.51
2022-09-13T10:53:37.942Z,19.66
2022-09-13T10:58:39.515Z,19.64
2022-09-13T11:04:03.765Z,19.65
2022-09-13T11:09:16.663Z,19.85
2022-09-13T11:14:24.120Z,19.94
2022-09-13T11:19:52.094Z,19.92
2022-09-13T11:25:01.497Z,20.13
2022-09-13T11:30:20.158Z,20.34
2022-09-13T11:35:47.289Z,20.43
2022-09-13T11:41:12.620Z,20.51
2022-09-13T11:46:22.891Z,20.64
2022-09-13T11:51:42.558Z,20.71
2022-09-13T11:56:50.358Z,20.92
2022-09-13T12:01:56.246Z,20.94
2022-09-13T12:07:01.528Z,20.99
2022-09-13T12:12:13.609Z,21.08
2022-09-13T12:17:45.745Z,21.12
2022-09-13T12:22:47.928Z,21.22
2022-09-13T12:28:00.525Z,21.37
2022-09-13T12:33:05.904Z,21.24
2022-09-13T12:38:18.095Z,21.25
2022-09-13T12:44:02.511Z,21.44
2022-09-13T12:49:34.977Z,21.48
2022-09-13T12:54:55.273Z,21.62
2022-09-13T13:00:33.312Z,21.58
2022-09-13T13:05:42.025Z,21.68
2022-09-13T13:10:43.752Z,21.62
2022-09-13T13:15:49.791Z,21.64
2022-09-13T13:20:51.578Z,21.66
2022-09-13T13:26:01.365Z,21.64
2022-09-13T13:31:03.575Z,21.54
2022-09-13T13:36:22.338Z,21.61
2022-09-13T13:41:39.522Z,21.63
2022-09-13T13:46:41.558Z,21.59
2022-09-13T13:51:43.099Z,21.72
2022-09-13T13:56:49.218Z,21.72
2022-09-13T14:01:55.681Z,21.73
2022-09-13T14:07:06.016Z,21.75
2022-09-13T14:12:07.970Z,21.74
2022-09-13T14:17:40.694Z,21.71
2022-09-13T14:22:42.266Z,21.76
2022-09-13T14:27:44.272Z,21.78
2022-09-13T14:32:47.330Z,21.83
2022-09-13T14:37:48.942Z,21.74
2022-09-13T14:42:53.821Z,21.75
2022-09-13T14:47:58.183Z,21.74
2022-09-13T14:53:05.585Z,21.74
2022-09-13T14:58:15.959Z,21.71
2022-09-13T15:03:18.627Z,21.75
2022-09-13T15:08:35.341Z,21.71
2022-09-13T15:13:38.431Z,21.65
2022-09-13T15:18:39.973Z,21.63
2022-09-13T15:23:43.332Z,21.67
2022-09-13T15:28:44.809Z,21.63
2022-09-13T15:33:49.344Z,21.62
2022-09-13T15:39:09.559Z,21.59
2022-09-13T15:44:11.091Z,21.62
2022-09-13T15:49:16.589Z,21.60
2022-09-13T15:54:18.273Z,21.60
2022-09-13T15:59:21.193Z,21.56
2022-09-13T16:04:23.006Z,21.54
2022-09-13T16:09:25.532Z,21.54
2022-09-13T16:14:27.110Z,21.56
2022-09-13T16:19:28.758Z,21.51
2022-09-13T16:24:31.159Z,21.51
2022-09-13T16:29:32.759Z,21.49
2022-09-13T16:34:34.337Z,21.47
2022-09-13T16:39:35.874Z,21.42
2022-09-13T16:44:37.453Z,21.36
2022-09-13T16:49:39.061Z,21.32
2022-09-13T16:54:40.694Z,21.29
2022-09-13T16:59:42.391Z,21.24
2022-09-13T17:04:44.046Z,21.21
2022-09-13T17:09:45.826Z,21.17
2022-09-13T17:14:47.575Z,21.12
2022-09-13T17:19:49.322Z,21.08
2022-09-13T17:24:50.859Z,21.05
2022-09-13T17:29:52.455Z,21.02
2022-09-13T17:34:54.030Z,20.98
2022-09-13T17:39:55.960Z,20.94
2022-09-13T17:44:58.632Z,20.93
2022-09-13T17:50:00.170Z,20.89
2022-09-13T17:55:02.427Z,20.87
2022-09-13T18:00:06.798Z,20.83
2022-09-13T18:05:12.955Z,20.78
2022-09-13T18:10:32.562Z,20.73
2022-09-13T18:15:37.174Z,20.63
2022-09-13T18:20:40.755Z,20.57
2022-09-13T18:25:42.692Z,20.47
2022-09-13T18:30:55.398Z,20.43
2022-09-13T18:36:02.480Z,20.36
2022-09-13T18:41:12.142Z,20.34
2022-09-13T18:46:18.468Z,20.30
2022-09-13T18:51:22.229Z,20.20
2022-09-13T18:56:24.716Z,20.21
2022-09-13T19:01:28.632Z,20.22
2022-09-13T19:06:32.671Z,20.25
2022-09-13T19:11:52.583Z,20.28
2022-09-13T19:16:56.497Z,20.18
2022-09-13T19:21:58.146Z,20.17
2022-09-13T19:27:01.617Z,20.18
2022-09-13T19:32:03.241Z,20.11
2022-09-13T19:37:04.851Z,20.12
2022-09-13T19:42:06.500Z,20.13
2022-09-13T19:47:53.251Z,20.10
2022-09-13T19:52:31.051Z,20.11
2022-09-13T19:57:32.570Z,20.03
2022-09-13T20:02:34.096Z,20.00
2022-09-13T20:07:35.606Z,19.93
2022-09-13T20:12:37.727Z,19.87
2022-09-13T20:17:39.361Z,19.87
2022-09-13T20:22:40.900Z,19.80
2022-09-13T20:27:42.442Z,19.75
2022-09-13T20:32:44.055Z,19.68
2022-09-13T20:37:46.204Z,19.68
2022-09-13T20:42:49.218Z,19.65
2022-09-13T20:47:50.716Z,19.62
2022-09-13T20:52:52.764Z,19.55
2022-09-13T20:57:54.817Z,19.47
2022-09-13T21:02:56.429Z,19.47
2022-09-13T21:08:21.151Z,19.43
2022-09-13T21:13:22.741Z,19.36
2022-09-13T21:18:25.045Z,19.28
2022-09-13T21:23:27.163Z,19.23
2022-09-13T21:28:29.061Z,19.17
2022-09-13T21:33:30.624Z,19.14
2022-09-13T21:38:34.219Z,19.11
2022-09-13T21:43:35.875Z,19.06
2022-09-13T21:48:37.500Z,19.01
2022-09-13T21:53:39.134Z,18.95
2022-09-13T21:58:41.297Z,18.89
2022-09-13T22:03:44.190Z,18.74
2022-09-13T22:08:51.016Z,18.71
2022-09-13T22:13:53.718Z,18.69
2022-09-13T22:19:03.296Z,18.83
2022-09-13T22:24:09.560Z,18.69
2022-09-13T22:29:11.607Z,18.64
2022-09-13T22:34:18.391Z,18.68
2022-09-13T22:39:19.924Z,18.58
2022-09-13T22:44:21.472Z,18.54
2022-09-13T22:49:23.086Z,18.42
2022-09-13T22:54:24.702Z,18.43
2022-09-13T22:59:26.344Z,18.38
2022-09-13T23:04:27.962Z,18.36
2022-09-13T23:09:29.505Z,18.31
2022-09-13T23:14:31.202Z,18.29
2022-09-13T23:19:32.760Z,18.24
2022-09-13T23:24:34.313Z,18.22
2022-09-13T23:29:36.020Z,18.18
2022-09-13T23:34:37.556Z,18.16
2022-09-13T23:39:39.326Z,18.14
2022-09-13T23:44:40.842Z,18.05
2022-09-13T23:49:43.613Z,18.10
2022-09-13T23:54:45.783Z,18.07
2022-09-13T23:59:47.281Z,18.02
